AV - LB | Pilotos de la V.A




 METAR AND TAF INFORMATION
METAR FOR SPQU
ADDS - METARS form results

(0216 UTC 19 May 2021)
Data provider http://aviationweather.gov/metar/data/
 
Forecast for: SPQU (AREQUIPA/RODRIGU, PE)
Text: TAF SPQU 182300Z 1900/1924 03004KT CAVOK TX22/1919Z TN08/1910Z
Forecast period: 0000 to 1300 UTC 19 May 2021
Forecast type: FROM: standard forecast or significant change
Winds: from the NNE (30 degrees) at 5 MPH (4 knots; 2.1 m/s)
Visibility: 6 or more miles (10+ km)
Ceiling: unknown
Clouds: missing
Weather: no significant weather forecast for this period
Text: BECMG 1913/1915 25009KT
Forecast period: 1300 UTC 19 May 2021 to 0000 UTC 20 May 2021
Forecast type: BECOMING: Conditions expected to become as follows by 1500 UTC 19 May 2021
Winds: from the WSW (250 degrees) at 10 MPH (9 knots; 4.6 m/s)
Visibility: 6 or more miles (10+ km)
Ceiling: unknown
Clouds: missing
Weather: no significant weather forecast for this period

 AIRPORT MAP

 RUNWAY INFORMATION
Runway 09 Runway length 9777 ft Runway width 148 ft
Runway elevation 8270 ft Runway displaced threshold 0 ft Runway heading 93
Runway 27 Runway length 9777 ft Runway width 148 ft
Runway elevation 8404 ft Runway displaced threshold 1467 ft Runway heading 273

 AIRPORT FREQUENCIES
Type APP Name AREQUIPA A Frequency 118.7 MHZ
Type GND Name GND Frequency 121.9 MHZ
Type TWR Name AREQUIPA T Frequency 118.7 MHZ

 AIRPORT NEAR NAVIGATION AIDS
Type VOR-DME Name Arequipa Frequency 113700 KHZ